createdAt,value
2019-01-14T00:00:21.840Z,4.5
2019-01-14T00:05:27.287Z,4.7
2019-01-14T00:10:32.781Z,2.8
2019-01-14T00:15:37.841Z,3.5
2019-01-14T00:20:42.196Z,4.1
2019-01-14T00:25:48.018Z,3.3
2019-01-14T00:30:52.301Z,2.6
2019-01-14T00:35:58.098Z,3
2019-01-14T00:41:06.044Z,2.7
2019-01-14T00:46:11.235Z,2.5
2019-01-14T00:51:20.185Z,3.5
2019-01-14T00:56:25.997Z,2.8
2019-01-14T01:01:31.016Z,2.4
2019-01-14T01:06:37.006Z,2.2
2019-01-14T01:11:42.764Z,3.8
2019-01-14T01:16:48.376Z,2.2
2019-01-14T01:21:54.121Z,2.4
2019-01-14T01:26:59.778Z,2.2
2019-01-14T01:32:05.768Z,2.9
2019-01-14T01:37:10.812Z,2
2019-01-14T01:42:15.080Z,2.4
2019-01-14T01:47:20.893Z,2.7
2019-01-14T01:52:26.643Z,2.8
2019-01-14T01:57:34.031Z,2.9
2019-01-14T02:02:39.920Z,3.4
2019-01-14T02:07:46.320Z,2.2
2019-01-14T02:12:50.296Z,3.1
2019-01-14T02:17:58.857Z,2.1
2019-01-14T02:23:02.853Z,3
2019-01-14T02:28:11.097Z,4.2
2019-01-14T02:33:17.574Z,2.6
2019-01-14T02:38:22.945Z,3.8
2019-01-14T02:43:28.667Z,2
2019-01-14T02:48:34.150Z,2.8
2019-01-14T02:53:39.818Z,2.4
2019-01-14T02:58:45.746Z,2.4
2019-01-14T03:03:50.916Z,2.8
2019-01-14T03:08:56.446Z,8.5
2019-01-14T03:14:00.889Z,3.7
2019-01-14T03:19:05.964Z,8.9
2019-01-14T03:24:11.714Z,8.2
2019-01-14T03:29:17.221Z,4.9
2019-01-14T03:34:22.767Z,3
2019-01-14T03:39:28.517Z,4
2019-01-14T03:44:34.324Z,3.5
2019-01-14T03:49:39.436Z,2.3
2019-01-14T03:54:45.249Z,5.5
2019-01-14T03:59:51.315Z,3.4
2019-01-14T04:04:57.132Z,3.2
2019-01-14T04:10:02.257Z,4.1
2019-01-14T04:15:08.041Z,4.4
2019-01-14T04:20:13.704Z,2.9
2019-01-14T04:25:18.896Z,3
2019-01-14T04:30:24.329Z,4.3
2019-01-14T04:35:29.395Z,2.7
2019-01-14T04:40:34.669Z,2.9
2019-01-14T04:45:40.755Z,2.7
2019-01-14T04:50:45.745Z,4.2
2019-01-14T04:55:51.576Z,4.1
2019-01-14T05:00:57.247Z,3.3
2019-01-14T05:06:02.944Z,2.1
2019-01-14T05:11:08.512Z,9.5
2019-01-14T05:16:13.973Z,13.5
2019-01-14T05:21:19.486Z,9.1
2019-01-14T05:26:24.147Z,6.6
2019-01-14T05:31:29.113Z,6
2019-01-14T05:36:34.820Z,5.1
2019-01-14T05:41:40.307Z,5.4
2019-01-14T05:46:49.976Z,6.1
2019-01-14T05:51:55.612Z,4
2019-01-14T05:57:01.297Z,5
2019-01-14T06:02:06.409Z,2.6
2019-01-14T06:07:12.321Z,5.5
2019-01-14T06:12:17.334Z,3.3
2019-01-14T06:17:23.050Z,5.8
2019-01-14T06:22:28.394Z,3.2
2019-01-14T06:27:34.008Z,2.5
2019-01-14T06:32:39.522Z,3.6
2019-01-14T06:37:44.547Z,3.4
2019-01-14T06:42:47.393Z,3.5
2019-01-14T06:47:51.180Z,3.5
2019-01-14T06:52:56.206Z,3.3
2019-01-14T06:58:02.376Z,8.8
2019-01-14T07:03:07.252Z,4
2019-01-14T07:08:12.489Z,11.3
2019-01-14T07:13:17.485Z,10.1
2019-01-14T07:18:22.933Z,4.2
2019-01-14T07:23:28.547Z,3.5
2019-01-14T07:28:33.716Z,5.7
2019-01-14T07:33:39.004Z,13.2
2019-01-14T07:38:44.317Z,4.7
2019-01-14T07:43:49.257Z,9.8
2019-01-14T07:48:55.023Z,5
2019-01-14T07:53:59.996Z,6.6
2019-01-14T07:59:05.135Z,6.3
2019-01-14T08:04:10.207Z,5.4
2019-01-14T08:09:15.979Z,8.3
2019-01-14T08:14:21.175Z,3.2
2019-01-14T08:19:26.787Z,5.8
2019-01-14T08:24:31.816Z,3.3
2019-01-14T08:29:36.961Z,6.8
2019-01-14T08:34:42.575Z,4.4
2019-01-14T08:39:48.112Z,3.4
2019-01-14T08:44:53.307Z,3.2
2019-01-14T08:49:58.741Z,4.7
2019-01-14T08:55:03.779Z,5.9
2019-01-14T09:00:09.066Z,4.7
2019-01-14T09:05:14.528Z,4.5
2019-01-14T09:10:19.714Z,4.1
2019-01-14T09:15:23.601Z,9.1
2019-01-14T09:20:28.647Z,8.2
2019-01-14T09:25:33.607Z,4.8
2019-01-14T09:30:39.073Z,3.3
2019-01-14T09:35:44.844Z,5.8
2019-01-14T09:40:50.277Z,5.3
2019-01-14T09:45:56.165Z,7
2019-01-14T09:51:01.878Z,5.6
2019-01-14T09:56:06.946Z,6.1
2019-01-14T10:01:12.566Z,8.9
2019-01-14T10:06:17.933Z,22.3
2019-01-14T10:11:24.032Z,11.2
2019-01-14T10:16:29.542Z,11.7
2019-01-14T10:21:35.075Z,10.6
2019-01-14T10:26:40.696Z,10.7
2019-01-14T10:31:45.910Z,6.2
2019-01-14T10:36:51.351Z,11.8
2019-01-14T10:41:56.946Z,8
2019-01-14T10:47:02.556Z,5.5
2019-01-14T10:52:08.065Z,6.8
2019-01-14T10:57:13.502Z,5.5
2019-01-14T11:02:19.299Z,5.2
2019-01-14T11:07:23.150Z,4.5
2019-01-14T11:12:28.163Z,9.8
2019-01-14T11:17:33.833Z,8.9
2019-01-14T11:22:39.340Z,9.3
2019-01-14T11:27:44.939Z,5.8
2019-01-14T11:32:50.398Z,3.5
2019-01-14T11:37:55.918Z,4.7
2019-01-14T11:43:01.514Z,6.5
2019-01-14T11:48:06.527Z,5.9
2019-01-14T11:53:12.810Z,8.4
2019-01-14T11:58:17.368Z,3.3
2019-01-14T12:03:23.157Z,3.6
2019-01-14T12:08:28.630Z,4
2019-01-14T12:13:34.448Z,3
2019-01-14T12:18:39.505Z,4
2019-01-14T12:23:44.779Z,2.3
2019-01-14T12:28:48.557Z,3.2
2019-01-14T12:33:54.036Z,4.7
2019-01-14T12:38:59.155Z,3.3
2019-01-14T12:44:02.766Z,1.8
2019-01-14T12:49:07.850Z,5.2
2019-01-14T12:54:13.126Z,2.4
2019-01-14T12:59:18.090Z,2.7
2019-01-14T13:04:23.069Z,3
2019-01-14T13:09:29.136Z,3.8
2019-01-14T13:14:34.949Z,2.2
2019-01-14T13:19:39.150Z,5.6
2019-01-14T13:24:45.656Z,9.4
2019-01-14T13:29:50.663Z,6.6
2019-01-14T13:34:56.711Z,5.2
2019-01-14T13:40:01.687Z,4.3
2019-01-14T13:45:07.439Z,5.9
2019-01-14T13:50:13.188Z,6.6
2019-01-14T13:55:17.270Z,9.7
2019-01-14T14:00:21.421Z,5.5
2019-01-14T14:05:25.557Z,8.9
2019-01-14T14:10:31.138Z,5
2019-01-14T14:15:36.205Z,77.6
2019-01-14T14:20:41.996Z,98.3
2019-01-14T14:25:47.322Z,49.8
2019-01-14T14:30:52.695Z,45.3
2019-01-14T14:35:58.000Z,43.7
2019-01-14T14:41:03.128Z,34.7
2019-01-14T14:46:09.062Z,13.8
2019-01-14T14:51:15.236Z,11.6
2019-01-14T14:56:24.777Z,11.1
2019-01-14T15:01:29.194Z,10.7
2019-01-14T15:06:34.389Z,10.6
2019-01-14T15:11:39.354Z,8.3
2019-01-14T15:16:44.898Z,11.5
2019-01-14T15:21:50.358Z,9
2019-01-14T15:26:55.480Z,7.8
2019-01-14T15:32:00.473Z,10.3
2019-01-14T15:37:06.262Z,8.7
2019-01-14T15:42:11.848Z,9.8
2019-01-14T15:47:17.644Z,10
2019-01-14T15:52:23.090Z,7.7
2019-01-14T15:57:29.028Z,6.6
2019-01-14T16:02:35.644Z,10.5
2019-01-14T16:07:41.907Z,10.9
2019-01-14T16:12:47.156Z,9.4
2019-01-14T16:17:53.165Z,10.6
2019-01-14T16:22:59.331Z,11.7
2019-01-14T16:28:05.109Z,13.3
2019-01-14T16:33:10.122Z,11.9
2019-01-14T16:38:15.840Z,14.6
2019-01-14T16:43:21.543Z,18.6
2019-01-14T16:48:27.541Z,11.1
2019-01-14T16:53:33.344Z,13.5
2019-01-14T16:58:38.963Z,8.7
2019-01-14T17:03:44.643Z,18.5
2019-01-14T17:08:49.819Z,13.9
2019-01-14T17:13:55.335Z,12.6
2019-01-14T17:19:01.652Z,12.5
2019-01-14T17:24:06.960Z,17.6
2019-01-14T17:29:13.333Z,15.8
2019-01-14T17:34:18.760Z,15
2019-01-14T17:39:24.279Z,18.9
2019-01-14T17:44:29.596Z,14.9
2019-01-14T17:49:35.720Z,12
2019-01-14T17:54:41.467Z,12.2
2019-01-14T17:59:47.184Z,14.3
2019-01-14T18:04:52.712Z,12.5
2019-01-14T18:09:59.085Z,14.4
2019-01-14T18:15:04.967Z,12.9
2019-01-14T18:20:10.910Z,16.9
2019-01-14T18:25:16.460Z,14.9
2019-01-14T18:30:21.517Z,12.6
2019-01-14T18:35:27.410Z,10
2019-01-14T18:40:33.881Z,7.4
2019-01-14T18:45:39.800Z,7.7
2019-01-14T18:50:44.896Z,6.8
2019-01-14T18:55:50.649Z,11.5
2019-01-14T19:00:56.260Z,15.6
2019-01-14T19:06:01.392Z,17
2019-01-14T19:11:06.607Z,11.7
2019-01-14T19:16:12.044Z,11.4
2019-01-14T19:21:17.480Z,9.5
2019-01-14T19:26:22.729Z,16.4
2019-01-14T19:31:28.814Z,10
2019-01-14T19:36:34.341Z,8.5
2019-01-14T19:41:39.808Z,8.5
2019-01-14T19:46:44.951Z,7.7
2019-01-14T19:51:49.799Z,10.3
2019-01-14T19:56:54.975Z,10.6
2019-01-14T20:02:00.902Z,9.8
2019-01-14T20:07:10.572Z,12
2019-01-14T20:12:07.420Z,8.6
2019-01-14T20:17:12.835Z,12.6
2019-01-14T20:22:17.549Z,11.2
2019-01-14T20:27:22.831Z,9.1
2019-01-14T20:32:28.884Z,6.6
2019-01-14T20:37:34.502Z,7.5
2019-01-14T20:42:40.421Z,5.8
2019-01-14T20:47:45.788Z,5.6
2019-01-14T20:52:52.137Z,6.9
2019-01-14T20:57:57.817Z,5.7
2019-01-14T21:03:03.424Z,6.9
2019-01-14T21:08:09.445Z,5.2
2019-01-14T21:13:15.101Z,6.8
2019-01-14T21:18:20.225Z,8.4
2019-01-14T21:23:26.288Z,8.5
2019-01-14T21:28:32.057Z,12
2019-01-14T21:33:37.789Z,9.7
2019-01-14T21:38:42.898Z,11.2
2019-01-14T21:43:48.554Z,14.1
2019-01-14T21:48:57.790Z,16.5
2019-01-14T21:54:02.832Z,10.8
2019-01-14T21:59:08.159Z,10.8
2019-01-14T22:04:14.361Z,10.4
2019-01-14T22:09:20.496Z,8.9
2019-01-14T22:14:26.403Z,9.2
2019-01-14T22:19:32.096Z,7.9
2019-01-14T22:24:37.380Z,10
2019-01-14T22:29:42.411Z,8.6
2019-01-14T22:34:48.673Z,10
2019-01-14T22:39:54.169Z,7.2
2019-01-14T22:45:00.012Z,6.6
2019-01-14T22:50:05.241Z,7.8
2019-01-14T22:55:11.120Z,7.2
2019-01-14T23:00:16.555Z,6
2019-01-14T23:05:22.090Z,7.2
2019-01-14T23:10:27.953Z,6.3
2019-01-14T23:15:32.884Z,6.1
2019-01-14T23:20:38.689Z,4.1
2019-01-14T23:25:43.888Z,4.9
2019-01-14T23:30:49.924Z,5.3
2019-01-14T23:35:55.048Z,6.2
2019-01-14T23:40:59.251Z,8.2
2019-01-14T23:46:05.093Z,3.6
2019-01-14T23:51:10.136Z,4.7
2019-01-14T23:56:15.392Z,4.1
